»·PEaware :: N257CG L52-L88

N257CG :: L52-L88

FLIGHT INFORMATION

Flight Status: Arrived
Operator: Privately registered:
United States
More flights under this callsign
Pilot: Chris G. (23363)
Aircraft: CESSNA 172 SKYHAWK
(C172)
More flights by this aircraft type
Origin: L52 Oceano Co
United States
Destination: L88 New Cuyama
United States
More flights between these airports :: More routes between these airports
Route:
File this flight plan on PilotEdge
Remarks: +CW / CAT 1
Altitude:
(Current/Filed)
6,500ft
Speed:
(Current/Filed)
100kts
Departed: 07-Feb-19 07:14 PM
Arrived: 07-Feb-19 07:46 PM
Distance/Time
Traveled:
47nm/0:32
Distance/Time
To Go:
Arrived

Flight Plot

Page will automatically refresh every two minutes.


Map Options




Map Legend


Flown Route
Filed Route
Departure Airport
Arrival Airport
Navaid (VOR, NDB)
Fix

Horizontal Profiles

Position Reports

Time Latitude Longitude Heading Altitude Ground
Speed
07-Feb-19 18:57 35.102275 -120.622530 210 16ft 0kts
07-Feb-19 18:58 35.102275 -120.622530 210 16ft 0kts
07-Feb-19 18:59 35.102275 -120.622530 210 16ft 0kts
07-Feb-19 19:00 35.102274 -120.622530 210 16ft 0kts
07-Feb-19 19:01 35.102274 -120.622530 210 16ft 0kts
07-Feb-19 19:02 35.102274 -120.622530 210 16ft 0kts
07-Feb-19 19:03 35.102274 -120.622530 210 16ft 0kts
07-Feb-19 19:04 35.102274 -120.622530 210 16ft 0kts
07-Feb-19 19:05 35.102274 -120.622530 210 16ft 0kts
07-Feb-19 19:06 35.102274 -120.622530 210 16ft 0kts
07-Feb-19 19:07 35.102171 -120.622479 127 16ft 4kts
07-Feb-19 19:08 35.101967 -120.622151 148 17ft 0kts
07-Feb-19 19:09 35.101190 -120.622504 137 15ft 8kts
07-Feb-19 19:10 35.099897 -120.620140 122 17ft 10kts
07-Feb-19 19:11 35.099529 -120.619400 26 17ft 0kts
07-Feb-19 19:12 35.099576 -120.619389 2 17ft 0kts
07-Feb-19 19:13 35.103648 -120.626179 302 176ft 75kts
07-Feb-19 19:14 35.117246 -120.652088 300 1030ft 97kts
07-Feb-19 19:15 35.103015 -120.661853 115 2021ft 92kts
07-Feb-19 19:16 35.102848 -120.632177 89 3018ft 84kts
07-Feb-19 19:17 35.100625 -120.598016 97 3546ft 110kts
07-Feb-19 19:18 35.095337 -120.560204 100 4048ft 114kts
07-Feb-19 19:19 35.089150 -120.522142 101 4550ft 113kts
07-Feb-19 19:20 35.082780 -120.484411 101 5051ft 112kts
07-Feb-19 19:21 35.076414 -120.447134 101 5551ft 111kts
07-Feb-19 19:22 35.070071 -120.410157 101 6052ft 110kts
07-Feb-19 19:23 35.063791 -120.373634 101 6552ft 109kts
07-Feb-19 19:24 35.057591 -120.337649 101 7052ft 107kts
07-Feb-19 19:25 35.051440 -120.302022 101 7553ft 106kts
07-Feb-19 19:26 35.044291 -120.262852 104 7510ft 130kts
07-Feb-19 19:27 35.036827 -120.227451 103 7508ft 128kts
07-Feb-19 19:28 35.029221 -120.184712 101 7508ft 128kts
07-Feb-19 19:29 35.021823 -120.142122 101 7508ft 128kts
07-Feb-19 19:30 35.014366 -120.099252 101 7508ft 128kts
07-Feb-19 19:31 35.006905 -120.056458 101 7508ft 128kts
07-Feb-19 19:32 34.999404 -120.013526 101 7508ft 128kts
07-Feb-19 19:33 34.991921 -119.970790 101 7508ft 128kts
07-Feb-19 19:34 34.984430 -119.928094 101 7508ft 128kts
07-Feb-19 19:35 34.976919 -119.885384 101 7508ft 128kts
07-Feb-19 19:36 34.969430 -119.842877 101 7508ft 128kts
07-Feb-19 19:37 34.956813 -119.806796 115 6930ft 114kts
07-Feb-19 19:38 34.945649 -119.769346 106 5918ft 113kts
07-Feb-19 19:39 34.937121 -119.735008 112 4904ft 100kts
07-Feb-19 19:40 34.926699 -119.704420 112 3900ft 96kts
07-Feb-19 19:41 34.917571 -119.677883 113 3618ft 83kts
07-Feb-19 19:42 34.910394 -119.651507 70 3191ft 85kts
07-Feb-19 19:43 34.926925 -119.652343 315 2809ft 72kts
07-Feb-19 19:44 34.933967 -119.671193 296 2400ft 59kts
07-Feb-19 19:45 34.940443 -119.686778 294 2171ft 31kts
07-Feb-19 19:47 34.943317 -119.690975 287 2154ft 5kts
07-Feb-19 19:48 34.943282 -119.691205 195 2154ft 0kts
07-Feb-19 19:49 34.943282 -119.691205 195 2154ft 0kts
07-Feb-19 19:50 34.943282 -119.691205 195 2154ft 0kts
07-Feb-19 19:51 34.943282 -119.691205 195 2154ft 0kts

Navigation Log

Ident Type
Flight plan parsing failed, navigation log unavailable